createdAt,value
2023-02-27T00:01:46.189Z,4.90
2023-02-27T00:04:16.502Z,5.30
2023-02-27T00:06:44.643Z,4.47
2023-02-27T00:09:12.915Z,4.65
2023-02-27T00:11:41.122Z,5.20
2023-02-27T00:14:10.754Z,4.63
2023-02-27T00:16:38.987Z,4.45
2023-02-27T00:19:07.512Z,4.10
2023-02-27T00:21:36.947Z,4.60
2023-02-27T00:24:05.752Z,4.57
2023-02-27T00:26:33.956Z,4.30
2023-02-27T00:29:02.105Z,4.30
2023-02-27T00:31:32.106Z,5.10
2023-02-27T00:34:00.473Z,4.25
2023-02-27T00:36:28.536Z,4.95
2023-02-27T00:38:56.687Z,4.50
2023-02-27T00:41:28.130Z,4.47
2023-02-27T00:43:56.533Z,4.30
2023-02-27T00:46:24.872Z,4.78
2023-02-27T00:48:54.421Z,5.03
2023-02-27T00:51:22.917Z,4.60
2023-02-27T00:53:51.043Z,4.57
2023-02-27T00:56:19.182Z,4.40
2023-02-27T00:58:47.406Z,4.82
2023-02-27T01:01:15.534Z,4.50
2023-02-27T01:03:43.761Z,4.25
2023-02-27T01:06:13.377Z,4.95
2023-02-27T01:08:41.527Z,5.00
2023-02-27T01:11:09.793Z,4.05
2023-02-27T01:13:38.028Z,4.53
2023-02-27T01:16:08.574Z,3.63
2023-02-27T01:18:36.795Z,4.28
2023-02-27T01:21:05.444Z,5.10
2023-02-27T01:23:34.998Z,3.38
2023-02-27T01:26:03.129Z,4.45
2023-02-27T01:28:31.302Z,4.28
2023-02-27T01:30:59.511Z,5.07
2023-02-27T01:33:28.053Z,3.83
2023-02-27T01:35:56.185Z,4.90
2023-02-27T01:38:24.492Z,4.22
2023-02-27T01:40:54.181Z,3.85
2023-02-27T01:43:23.468Z,4.13
2023-02-27T01:45:51.791Z,4.25
2023-02-27T01:48:23.659Z,4.38
2023-02-27T01:50:55.963Z,3.50
2023-02-27T01:53:26.180Z,4.28
2023-02-27T01:55:59.686Z,4.55
2023-02-27T01:58:28.415Z,3.88
2023-02-27T02:00:57.123Z,3.90
2023-02-27T02:03:34.334Z,3.80
2023-02-27T02:06:06.051Z,4.32
2023-02-27T02:08:37.304Z,4.05
2023-02-27T02:11:09.147Z,4.60
2023-02-27T02:13:40.117Z,4.57
2023-02-27T02:16:22.681Z,3.70
2023-02-27T02:18:58.798Z,5.35
2023-02-27T02:22:07.917Z,3.92
2023-02-27T02:25:08.781Z,4.05
2023-02-27T02:27:53.261Z,5.20
2023-02-27T02:30:58.744Z,3.63
2023-02-27T02:33:46.853Z,4.32
2023-02-27T02:37:05.575Z,4.05
2023-02-27T02:39:59.836Z,3.50
2023-02-27T02:42:35.691Z,4.25
2023-02-27T02:45:14.261Z,3.38
2023-02-27T02:47:52.754Z,4.55
2023-02-27T02:50:30.365Z,4.00
2023-02-27T02:53:09.318Z,4.47
2023-02-27T02:55:43.494Z,5.07
2023-02-27T02:58:20.774Z,3.85
2023-02-27T03:00:55.626Z,3.47
2023-02-27T03:03:28.138Z,3.55
2023-02-27T03:06:04.089Z,4.07
2023-02-27T03:08:37.713Z,4.00
2023-02-27T03:11:08.385Z,4.05
2023-02-27T03:13:40.230Z,5.53
2023-02-27T03:16:14.404Z,3.72
2023-02-27T03:18:48.095Z,4.85
2023-02-27T03:21:23.613Z,4.22
2023-02-27T03:23:57.417Z,3.33
2023-02-27T03:26:34.706Z,4.15
2023-02-27T03:29:07.620Z,3.90
2023-02-27T03:31:42.743Z,4.22
2023-02-27T03:34:18.568Z,4.28
2023-02-27T03:36:50.763Z,4.85
2023-02-27T03:39:28.377Z,3.92
2023-02-27T03:42:07.905Z,4.05
2023-02-27T03:44:44.680Z,3.28
2023-02-27T03:47:13.064Z,4.03
2023-02-27T03:49:41.346Z,3.78
2023-02-27T03:52:09.835Z,3.53
2023-02-27T03:54:44.618Z,3.67
2023-02-27T03:57:15.314Z,3.53
2023-02-27T03:59:44.372Z,3.38
2023-02-27T04:02:12.629Z,4.22
2023-02-27T04:04:40.837Z,3.17
2023-02-27T04:07:24.902Z,4.20
2023-02-27T04:10:08.263Z,3.47
2023-02-27T04:12:57.662Z,3.95
2023-02-27T04:15:34.526Z,3.65
2023-02-27T04:18:17.170Z,4.18
2023-02-27T04:20:49.860Z,3.65
2023-02-27T04:23:22.397Z,3.53
2023-02-27T04:26:08.931Z,3.28
2023-02-27T04:28:45.228Z,3.35
2023-02-27T04:31:20.321Z,2.90
2023-02-27T04:33:55.252Z,3.67
2023-02-27T04:36:32.287Z,3.15
2023-02-27T04:39:06.195Z,4.03
2023-02-27T04:44:09.184Z,3.45
2023-02-27T04:46:40.951Z,3.58
2023-02-27T04:49:14.367Z,4.03
2023-02-27T04:51:51.228Z,4.53
2023-02-27T04:54:25.337Z,3.67
2023-02-27T04:56:56.922Z,3.15
2023-02-27T04:59:29.488Z,3.78
2023-02-27T05:02:01.200Z,3.00
2023-02-27T05:04:34.459Z,3.72
2023-02-27T05:09:37.722Z,3.40
2023-02-27T05:12:13.896Z,3.08
2023-02-27T05:14:46.497Z,3.33
2023-02-27T05:17:19.761Z,3.65
2023-02-27T05:22:25.584Z,3.13
2023-02-27T05:25:00.533Z,3.50
2023-02-27T05:27:39.284Z,3.75
2023-02-27T05:30:15.820Z,3.28
2023-02-27T05:32:52.333Z,3.30
2023-02-27T05:35:28.054Z,3.50
2023-02-27T05:38:05.847Z,3.25
2023-02-27T05:40:38.389Z,3.30
2023-02-27T05:43:11.465Z,3.50
2023-02-27T05:45:44.115Z,4.18
2023-02-27T05:48:19.342Z,3.45
2023-02-27T05:50:50.526Z,2.95
2023-02-27T05:53:22.507Z,3.50
2023-02-27T05:55:52.510Z,2.38
2023-02-27T05:58:24.937Z,3.97
2023-02-27T06:00:59.586Z,3.73
2023-02-27T06:03:29.370Z,3.50
2023-02-27T06:06:00.742Z,3.28
2023-02-27T06:08:33.092Z,3.17
2023-02-27T06:11:01.830Z,3.97
2023-02-27T06:13:30.189Z,3.63
2023-02-27T06:15:59.698Z,4.18
2023-02-27T06:18:27.945Z,3.40
2023-02-27T06:20:56.354Z,3.42
2023-02-27T06:23:24.402Z,3.17
2023-02-27T06:25:53.197Z,3.88
2023-02-27T06:28:21.444Z,3.40
2023-02-27T06:30:53.618Z,3.60
2023-02-27T06:33:23.117Z,4.50
2023-02-27T06:35:51.486Z,3.30
2023-02-27T06:38:19.590Z,3.63
2023-02-27T06:40:47.659Z,4.47
2023-02-27T06:43:15.965Z,4.40
2023-02-27T06:45:44.027Z,4.63
2023-02-27T06:48:12.619Z,3.42
2023-02-27T06:50:42.311Z,3.47
2023-02-27T06:53:10.741Z,3.80
2023-02-27T06:55:38.815Z,4.72
2023-02-27T06:58:06.877Z,5.93
2023-02-27T07:00:35.033Z,3.85
2023-02-27T07:03:04.582Z,3.50
2023-02-27T07:05:32.981Z,3.60
2023-02-27T07:08:03.761Z,4.10
2023-02-27T07:10:34.991Z,3.78
2023-02-27T07:13:03.824Z,4.10
2023-02-27T07:15:31.990Z,4.53
2023-02-27T07:18:00.092Z,3.38
2023-02-27T07:20:28.396Z,3.63
2023-02-27T07:22:56.664Z,4.25
2023-02-27T07:25:26.285Z,3.10
2023-02-27T07:27:54.472Z,3.20
2023-02-27T07:30:22.876Z,3.28
2023-02-27T07:32:51.538Z,4.25
2023-02-27T07:35:20.143Z,3.95
2023-02-27T07:37:48.440Z,3.67
2023-02-27T07:40:16.673Z,3.50
2023-02-27T07:42:48.377Z,5.13
2023-02-27T07:45:18.444Z,3.20
2023-02-27T07:47:46.542Z,3.38
2023-02-27T07:50:14.998Z,4.20
2023-02-27T07:52:43.718Z,3.78
2023-02-27T07:55:13.984Z,3.95
2023-02-27T07:57:42.411Z,4.57
2023-02-27T08:00:13.554Z,5.47
2023-02-27T08:02:41.814Z,6.75
2023-02-27T08:05:10.164Z,4.35
2023-02-27T08:07:38.259Z,4.03
2023-02-27T08:10:07.601Z,4.15
2023-02-27T08:12:36.097Z,5.18
2023-02-27T08:15:04.666Z,4.20
2023-02-27T08:17:34.435Z,4.80
2023-02-27T08:20:02.638Z,4.63
2023-02-27T08:22:31.276Z,5.07
2023-02-27T08:25:00.586Z,4.40
2023-02-27T08:27:28.943Z,4.03
2023-02-27T08:29:58.554Z,6.63
2023-02-27T08:32:27.161Z,3.70
2023-02-27T08:34:59.959Z,3.92
2023-02-27T08:37:28.098Z,3.25
2023-02-27T08:39:56.243Z,5.55
2023-02-27T08:42:26.789Z,4.20
2023-02-27T08:44:57.609Z,3.60
2023-02-27T08:47:28.347Z,3.55
2023-02-27T08:50:01.234Z,3.47
2023-02-27T08:52:29.406Z,4.32
2023-02-27T08:54:57.679Z,4.05
2023-02-27T08:57:25.988Z,3.60
2023-02-27T08:59:54.254Z,4.03
2023-02-27T09:02:26.186Z,3.97
2023-02-27T09:04:57.829Z,4.18
2023-02-27T09:07:29.850Z,4.43
2023-02-27T09:09:58.204Z,4.13
2023-02-27T09:12:26.592Z,4.15
2023-02-27T09:14:54.891Z,4.05
2023-02-27T09:17:23.059Z,4.88
2023-02-27T09:19:51.864Z,4.57
2023-02-27T09:22:20.096Z,4.70
2023-02-27T09:24:49.659Z,5.65
2023-02-27T09:27:17.844Z,4.60
2023-02-27T09:29:46.096Z,5.93
2023-02-27T09:32:17.443Z,3.67
2023-02-27T09:34:45.742Z,4.18
2023-02-27T09:37:13.836Z,3.72
2023-02-27T09:39:44.675Z,5.45
2023-02-27T09:42:20.666Z,4.90
2023-02-27T09:44:53.234Z,3.85
2023-02-27T09:47:25.905Z,3.60
2023-02-27T09:50:01.893Z,3.63
2023-02-27T09:52:32.573Z,4.18
2023-02-27T09:55:00.857Z,4.85
2023-02-27T09:57:41.776Z,3.65
2023-02-27T10:00:28.120Z,4.05
2023-02-27T10:03:06.557Z,3.00
2023-02-27T10:05:42.435Z,3.58
2023-02-27T10:08:19.746Z,4.38
2023-02-27T10:10:55.123Z,4.07
2023-02-27T10:13:48.260Z,2.97
2023-02-27T10:16:20.566Z,3.72
2023-02-27T10:18:55.158Z,4.80
2023-02-27T10:21:31.412Z,3.45
2023-02-27T10:24:07.846Z,4.50
2023-02-27T10:26:39.635Z,3.83
2023-02-27T10:29:19.312Z,3.85
2023-02-27T10:31:54.576Z,4.47
2023-02-27T10:34:24.363Z,4.13
2023-02-27T10:36:53.370Z,4.03
2023-02-27T10:39:23.619Z,5.00
2023-02-27T10:41:52.758Z,4.00
2023-02-27T10:44:25.027Z,5.30
2023-02-27T10:46:56.113Z,3.72
2023-02-27T10:49:24.686Z,4.70
2023-02-27T10:52:08.226Z,4.68
2023-02-27T10:54:37.175Z,4.82
2023-02-27T10:57:19.408Z,4.10
2023-02-27T10:59:55.870Z,4.70
2023-02-27T11:02:27.910Z,6.05
2023-02-27T11:04:58.206Z,3.72
2023-02-27T11:07:35.079Z,3.88
2023-02-27T11:10:17.308Z,5.13
2023-02-27T11:13:00.759Z,4.97
2023-02-27T11:15:33.993Z,3.35
2023-02-27T11:18:22.128Z,4.47
2023-02-27T11:20:51.687Z,3.17
2023-02-27T11:23:23.544Z,3.13
2023-02-27T11:25:52.461Z,3.60
2023-02-27T11:28:28.253Z,4.10
2023-02-27T11:31:01.390Z,4.40
2023-02-27T11:33:34.898Z,3.80
2023-02-27T11:36:04.216Z,3.45
2023-02-27T11:38:34.824Z,3.65
2023-02-27T11:41:04.983Z,3.60
2023-02-27T11:43:35.795Z,3.78
2023-02-27T11:46:31.258Z,4.97
2023-02-27T11:51:47.279Z,4.50
2023-02-27T11:54:22.035Z,3.22
2023-02-27T11:57:04.608Z,4.00
2023-02-27T11:59:45.347Z,3.20
2023-02-27T12:02:24.099Z,3.60
2023-02-27T12:04:58.994Z,5.18
2023-02-27T12:07:31.849Z,4.13
2023-02-27T12:10:05.821Z,3.45
2023-02-27T12:12:44.084Z,6.10
2023-02-27T12:15:31.957Z,4.45
2023-02-27T12:18:16.444Z,3.85
2023-02-27T12:20:53.385Z,3.65
2023-02-27T12:23:28.818Z,3.58
2023-02-27T12:26:05.207Z,4.93
2023-02-27T12:28:44.981Z,3.85
2023-02-27T12:31:32.395Z,3.13
2023-02-27T12:34:09.376Z,3.85
2023-02-27T12:36:37.580Z,4.60
2023-02-27T12:39:06.055Z,3.55
2023-02-27T12:41:47.622Z,3.00
2023-02-27T12:44:30.738Z,3.67
2023-02-27T12:47:09.698Z,2.85
2023-02-27T12:49:51.247Z,4.18
2023-02-27T12:52:30.993Z,4.20
2023-02-27T12:55:07.828Z,4.55
2023-02-27T12:57:50.790Z,3.45
2023-02-27T13:00:21.959Z,2.92
2023-02-27T13:02:59.928Z,3.53
2023-02-27T13:05:39.150Z,3.22
2023-02-27T13:08:17.985Z,3.85
2023-02-27T13:10:53.021Z,3.90
2023-02-27T13:13:28.246Z,3.03
2023-02-27T13:16:00.752Z,2.85
2023-02-27T13:18:41.097Z,3.67
2023-02-27T13:21:14.155Z,3.30
2023-02-27T13:23:54.353Z,3.08
2023-02-27T13:26:27.461Z,3.55
2023-02-27T13:31:34.230Z,4.57
2023-02-27T13:34:14.334Z,4.22
2023-02-27T13:36:47.677Z,4.15
2023-02-27T13:39:39.796Z,3.03
2023-02-27T13:42:41.339Z,2.92
2023-02-27T13:45:48.950Z,3.92
2023-02-27T13:48:42.984Z,3.60
2023-02-27T13:51:28.048Z,3.83
2023-02-27T13:54:17.532Z,3.60
2023-02-27T13:56:49.129Z,3.65
2023-02-27T13:59:22.274Z,3.60
2023-02-27T14:01:54.504Z,4.80
2023-02-27T14:04:25.029Z,4.07
2023-02-27T14:07:00.154Z,3.90
2023-02-27T14:09:37.322Z,4.32
2023-02-27T14:12:30.924Z,3.65
2023-02-27T14:15:28.912Z,3.55
2023-02-27T14:18:11.468Z,4.05
2023-02-27T14:20:51.682Z,3.30
2023-02-27T14:23:23.813Z,3.38
2023-02-27T14:25:55.288Z,3.50
2023-02-27T14:28:30.678Z,3.85
2023-02-27T14:31:02.207Z,4.28
2023-02-27T14:33:40.630Z,3.65
2023-02-27T14:36:16.121Z,4.00
2023-02-27T14:38:44.746Z,3.22
2023-02-27T14:41:39.524Z,3.50
2023-02-27T14:44:19.802Z,3.53
2023-02-27T14:46:48.404Z,3.92
2023-02-27T14:49:22.914Z,3.83
2023-02-27T14:51:51.682Z,4.25
2023-02-27T14:54:22.812Z,3.42
2023-02-27T14:56:57.227Z,3.50
2023-02-27T14:59:26.472Z,4.15
2023-02-27T15:01:58.157Z,3.58
2023-02-27T15:04:29.458Z,4.00
2023-02-27T15:06:58.750Z,4.85
2023-02-27T15:09:35.287Z,3.85
2023-02-27T15:12:05.493Z,4.28
2023-02-27T15:14:39.783Z,3.85
2023-02-27T15:17:17.221Z,3.45
2023-02-27T15:19:50.621Z,3.05
2023-02-27T15:22:37.483Z,3.50
2023-02-27T15:25:09.617Z,3.95
2023-02-27T15:27:39.074Z,3.60
2023-02-27T15:30:09.644Z,3.70
2023-02-27T15:32:42.011Z,4.15
2023-02-27T15:35:17.064Z,4.10
2023-02-27T15:37:50.769Z,4.72
2023-02-27T15:40:23.362Z,4.35
2023-02-27T15:42:54.192Z,3.92
2023-02-27T15:45:25.308Z,4.63
2023-02-27T15:47:53.450Z,4.30
2023-02-27T15:50:28.360Z,4.00
2023-02-27T15:53:01.472Z,3.92
2023-02-27T15:55:32.107Z,4.38
2023-02-27T15:58:03.818Z,4.63
2023-02-27T16:00:35.217Z,4.18
2023-02-27T16:03:03.761Z,3.65
2023-02-27T16:05:36.495Z,3.70
2023-02-27T16:08:07.965Z,5.05
2023-02-27T16:10:38.670Z,3.65
2023-02-27T16:13:35.028Z,5.07
2023-02-27T16:16:05.262Z,4.20
2023-02-27T16:18:35.958Z,4.65
2023-02-27T16:21:13.423Z,3.67
2023-02-27T16:23:42.275Z,3.78
2023-02-27T16:26:27.101Z,4.13
2023-02-27T16:29:00.010Z,3.35
2023-02-27T16:31:31.131Z,5.13
2023-02-27T16:34:01.953Z,4.78
2023-02-27T16:36:31.825Z,5.13
2023-02-27T16:39:00.142Z,5.50
2023-02-27T16:41:28.571Z,5.03
2023-02-27T16:43:58.380Z,4.20
2023-02-27T16:46:26.650Z,5.30
2023-02-27T16:48:57.982Z,4.70
2023-02-27T16:51:29.873Z,5.35
2023-02-27T16:53:58.760Z,4.40
2023-02-27T16:56:37.792Z,4.00
2023-02-27T16:59:08.547Z,4.28
2023-02-27T17:01:36.776Z,4.68
2023-02-27T17:04:13.429Z,4.35
2023-02-27T17:06:49.409Z,5.38
2023-02-27T17:09:17.755Z,4.47
2023-02-27T17:11:45.939Z,4.00
2023-02-27T17:14:15.434Z,5.45
2023-02-27T17:16:43.562Z,4.85
2023-02-27T17:19:12.198Z,4.15
2023-02-27T17:21:40.334Z,4.47
2023-02-27T17:24:09.106Z,5.10
2023-02-27T17:26:37.766Z,4.80
2023-02-27T17:29:06.374Z,4.60
2023-02-27T17:31:35.975Z,4.18
2023-02-27T17:34:08.708Z,4.63
2023-02-27T17:36:38.853Z,5.72
2023-02-27T17:39:07.272Z,4.80
2023-02-27T17:41:35.744Z,6.25
2023-02-27T17:44:03.889Z,5.80
2023-02-27T17:46:32.863Z,6.30
2023-02-27T17:49:02.733Z,5.32
2023-02-27T17:51:31.966Z,4.43
2023-02-27T17:54:02.086Z,5.47
2023-02-27T17:56:30.606Z,5.88
2023-02-27T17:58:59.036Z,5.70
2023-02-27T18:01:27.497Z,5.07
2023-02-27T18:03:56.261Z,5.63
2023-02-27T18:06:26.905Z,5.55
2023-02-27T18:08:55.560Z,5.65
2023-02-27T18:11:24.237Z,5.53
2023-02-27T18:13:52.435Z,5.18
2023-02-27T18:16:21.981Z,6.07
2023-02-27T18:18:50.370Z,6.10
2023-02-27T18:21:21.152Z,5.97
2023-02-27T18:23:51.518Z,5.88
2023-02-27T18:26:29.827Z,5.50
2023-02-27T18:29:00.562Z,5.68
2023-02-27T18:31:31.467Z,5.50
2023-02-27T18:33:59.772Z,5.18
2023-02-27T18:36:28.636Z,6.35
2023-02-27T18:38:58.680Z,6.35
2023-02-27T18:41:29.171Z,5.63
2023-02-27T18:43:58.459Z,5.88
2023-02-27T18:46:27.588Z,5.53
2023-02-27T18:48:57.108Z,5.93
2023-02-27T18:51:25.770Z,6.00
2023-02-27T18:53:54.292Z,7.32
2023-02-27T18:56:25.544Z,5.40
2023-02-27T18:58:54.915Z,5.50
2023-02-27T19:01:24.645Z,5.85
2023-02-27T19:03:53.336Z,5.82
2023-02-27T19:06:21.866Z,5.57
2023-02-27T19:08:50.344Z,6.50
2023-02-27T19:11:28.634Z,6.38
2023-02-27T19:13:57.936Z,5.63
2023-02-27T19:16:26.502Z,5.80
2023-02-27T19:18:55.958Z,5.53
2023-02-27T19:21:25.496Z,5.70
2023-02-27T19:23:54.098Z,5.30
2023-02-27T19:26:25.833Z,5.45
2023-02-27T19:28:56.813Z,5.38
2023-02-27T19:31:26.154Z,6.15
2023-02-27T19:33:54.652Z,7.43
2023-02-27T19:36:25.001Z,5.25
2023-02-27T19:38:53.647Z,5.60
2023-02-27T19:41:22.825Z,6.50
2023-02-27T19:43:52.059Z,4.93
2023-02-27T19:46:24.835Z,5.10
2023-02-27T19:48:55.167Z,5.05
2023-02-27T19:51:23.676Z,5.05
2023-02-27T19:53:52.014Z,5.32
2023-02-27T19:56:23.772Z,5.55
2023-02-27T19:58:52.764Z,5.95
2023-02-27T20:01:25.065Z,5.43
2023-02-27T20:03:57.382Z,6.32
2023-02-27T20:06:27.644Z,5.10
2023-02-27T20:08:59.173Z,6.22
2023-02-27T20:11:30.402Z,5.22
2023-02-27T20:13:58.957Z,5.65
2023-02-27T20:16:30.728Z,6.65
2023-02-27T20:18:59.337Z,4.87
2023-02-27T20:21:28.944Z,5.60
2023-02-27T20:23:58.633Z,5.03
2023-02-27T20:26:28.944Z,4.85
2023-02-27T20:29:00.549Z,5.22
2023-02-27T20:31:32.501Z,5.03
2023-02-27T20:34:01.750Z,4.47
2023-02-27T20:36:29.974Z,6.32
2023-02-27T20:38:58.391Z,5.50
2023-02-27T20:41:29.547Z,4.95
2023-02-27T20:43:58.103Z,5.40
2023-02-27T20:46:28.005Z,5.03
2023-02-27T20:49:00.244Z,5.32
2023-02-27T20:51:31.178Z,4.53
2023-02-27T20:54:01.129Z,6.57
2023-02-27T20:56:30.974Z,5.07
2023-02-27T20:59:04.139Z,4.45
2023-02-27T21:01:32.880Z,4.65
2023-02-27T21:04:02.759Z,5.30
2023-02-27T21:06:32.047Z,4.13
2023-02-27T21:09:03.555Z,4.82
2023-02-27T21:11:33.428Z,4.80
2023-02-27T21:14:05.682Z,4.95
2023-02-27T21:16:34.114Z,4.80
2023-02-27T21:19:03.746Z,5.43
2023-02-27T21:21:34.083Z,4.95
2023-02-27T21:24:02.649Z,4.75
2023-02-27T21:26:35.348Z,5.90
2023-02-27T21:29:06.303Z,4.95
2023-02-27T21:31:36.369Z,5.32
2023-02-27T21:34:08.429Z,5.35
2023-02-27T21:36:42.366Z,5.43
2023-02-27T21:39:14.439Z,5.18
2023-02-27T21:41:43.009Z,4.60
2023-02-27T21:44:14.112Z,5.70
2023-02-27T21:46:42.443Z,4.82
2023-02-27T21:49:17.734Z,5.72
2023-02-27T21:51:46.368Z,5.50
2023-02-27T21:54:16.496Z,4.88
2023-02-27T21:56:46.386Z,5.28
2023-02-27T21:59:14.899Z,4.65
2023-02-27T22:01:48.171Z,6.45
2023-02-27T22:04:19.424Z,6.50
2023-02-27T22:06:48.976Z,5.80
2023-02-27T22:09:17.688Z,5.95
2023-02-27T22:11:46.460Z,5.40
2023-02-27T22:14:14.563Z,5.35
2023-02-27T22:16:43.003Z,5.82
2023-02-27T22:19:20.842Z,5.63
2023-02-27T22:21:51.824Z,5.72
2023-02-27T22:24:20.513Z,4.82
2023-02-27T22:26:50.258Z,5.20
2023-02-27T22:29:18.556Z,5.57
2023-02-27T22:31:47.134Z,5.53
2023-02-27T22:34:19.357Z,5.18
2023-02-27T22:36:52.080Z,4.97
2023-02-27T22:39:20.884Z,5.53
2023-02-27T22:41:49.568Z,6.25
2023-02-27T22:44:17.954Z,5.07
2023-02-27T22:46:47.937Z,5.68
2023-02-27T22:49:19.126Z,6.72
2023-02-27T22:51:50.743Z,6.03
2023-02-27T22:54:20.648Z,8.93
2023-02-27T22:56:51.261Z,8.00
2023-02-27T22:59:19.331Z,6.70
2023-02-27T23:01:48.573Z,6.55
2023-02-27T23:04:18.692Z,6.13
2023-02-27T23:06:46.901Z,6.60
2023-02-27T23:09:17.108Z,5.30
2023-02-27T23:11:45.940Z,6.57
2023-02-27T23:14:14.829Z,5.07
2023-02-27T23:16:45.622Z,6.00
2023-02-27T23:19:14.856Z,6.45
2023-02-27T23:21:44.647Z,5.82
2023-02-27T23:24:14.402Z,5.72
2023-02-27T23:26:44.251Z,6.55
2023-02-27T23:29:12.822Z,7.07
2023-02-27T23:31:45.159Z,6.05
2023-02-27T23:34:13.507Z,5.97
2023-02-27T23:36:41.750Z,6.35
2023-02-27T23:39:13.973Z,7.15
2023-02-27T23:41:42.277Z,7.93
2023-02-27T23:44:27.585Z,5.35
2023-02-27T23:46:55.654Z,6.38
2023-02-27T23:49:24.080Z,7.60
2023-02-27T23:51:52.349Z,6.03
2023-02-27T23:54:21.934Z,7.60
2023-02-27T23:56:50.055Z,6.55
2023-02-27T23:59:18.311Z,5.78
